Startpagina
METAR-TAF:

METAR-TAF

Vliegvelden :

Alderney Airport

Alderney,

breedte: 49-43N, lengte: 002-12W, hoogte: 71 m

Actueel weer

Dit bericht is 23 minuten geleden gemaakt, om 10:20 UTC
Wind 6 kt uit het zuidwesten
Temperatuur 10°C
Vochtigheid 93%
Druk 1029 hPa
Zicht 10 km of meer
Weinig wolken op 500 ft
Gebroken wolken op 3500 ft

METAR: EGJA 191020Z 22006KT 9999 FEW005 BKN035 10/09 Q1029

Tijdstip: 10:43 (10:43 UTC)

Verwachting

Dit bericht is 2 uur en het 41 minuten geleden gemaakt, om 08:02 UTC
Verwachting geldig van 19 om 09 UTC tot 19 om 18 UTC
Wind 5 kt uit het westzuidwesten
Zicht 10 km of meer
Weinig wolken op 800 ft
Gebroken wolken op 3000 ft
Kans 30% :
Tijdelijke
van 19 om 09 UTC tot 19 om 14 UTC
Zicht: 8000 m
Gebroken wolken op 800 ft
lichte regenbuien
Kans 30% :
Tijdelijke
van 19 om 14 UTC tot 19 om 18 UTC
Zicht: 5000 m
Gebroken wolken op 500 ft
lichte regenbuien

TAF: EGJA 190802Z 1909/1918 24005KT 9999 FEW008 BKN030 PROB30 TEMPO 1909/1914 8000 -SHRA BKN008 PROB30 TEMPO 1914/1918 5000 -SHRA BKN005

Waarnemingen en weersverwachtingen van meer dan 4000 vliegvelden (METAR en TAF).

De beschikbare stations zijn de gele en rode punten op de kaart.

Ga met uw muis naar het station om de naam te zien.

Klik dan om waarnemingen en weersverwachtingen te zien.

kaart wijzigen: klik op de groene knoppen met een zwart kruis om in te zoomen, op de groene knop met een streepje om uit te zoomen of op de groene pijlen voor aangrenzende kaarten.


METAR-TAF: